Karin Schepers — V2HS3 — position and weather

sailwx.info

Track history (hours):
 
Tides and Currents Weather Stations Pressure Air Temp Water Temp Dewpoint Dewpoint Depression Visibility Wind Speed Wind Dir Waves Ship Positions

Karin Schepers

Last reported at 2018-May-23 08:31 UTC. Time now 2018-Jun-22 11:30 UTC.
Position N 39°26' W 000°19'.
Warning: this ship's position is 30 days out of date.

Length 141 m; draft 6.2 m.

Type: Ship (hazmat cat A). MMSI: 305148000.

Date/timePositionNaut miles runAvg speedWind from/ knotsBaromVisibWave heightAir tempDewpointWater temp
2018-May-23 08:31N 39°26' W 000°19'0 0.1
2018-May-23 08:25N 39°26' W 000°19'0 0.0
2018-May-23 07:43N 39°26' W 000°19'0 0.1
2018-May-23 07:30N 39°26' W 000°19'2 3.9
2018-May-23 07:00N 39°25' W 000°17'1 1.9
2018-May-23 06:15N 39°23' W 000°17'0 0.0
2018-May-23 05:54N 39°23' W 000°18'0 0.0
2018-May-23 05:30N 39°23' W 000°18'0 0.1
2018-May-23 05:00N 39°23' W 000°17'0 0.2
2018-May-23 04:27N 39°23' W 000°17'0 0.0
2018-May-23 04:00N 39°23' W 000°17'0 0.0
2018-May-23 03:30N 39°23' W 000°17'0 0.1
2018-May-23 02:18N 39°23' W 000°17'0 0.0
2018-May-23 01:54N 39°23' W 000°17'0 0.0
2018-May-23 01:30N 39°23' W 000°17'0 0.0
2018-May-23 00:54N 39°23' W 000°17'0 0.0
2018-May-23 00:21N 39°23' W 000°17'0 0.0
2018-May-22 23:54N 39°23' W 000°17'0 0.0
2018-May-22 23:30N 39°23' W 000°17'0 0.0
2018-May-22 22:30N 39°23' W 000°17'0 0.0
2018-May-22 22:00N 39°23' W 000°17'0 0.0
2018-May-22 18:36N 39°23' W 000°18'0 0.1
2018-May-22 18:18N 39°23' W 000°18'0 0.0
2018-May-22 17:48N 39°23' W 000°18'0 0.0
2018-May-22 17:30N 39°23' W 000°18'0 0.1
2018-May-22 17:00N 39°23' W 000°18'0 0.0
2018-May-22 16:30N 39°23' W 000°18'0 0.0
2018-May-22 16:00N 39°23' W 000°18'0 0.1
2018-May-22 15:30N 39°23' W 000°18'0 0.1
2018-May-22 15:00N 39°23' W 000°18'0 0.0
2018-May-22 14:18N 39°23' W 000°18'0 0.0
2018-May-22 13:57N 39°23' W 000°18'0 0.0
2018-May-22 13:30N 39°23' W 000°18'0 0.0
2018-May-22 12:51N 39°23' W 000°18'0 0.0
2018-May-22 12:30N 39°23' W 000°18'0 0.0
2018-May-22 11:57N 39°23' W 000°18'0 0.0
2018-May-22 11:30N 39°23' W 000°18'0 0.0
2018-May-22 10:48N 39°23' W 000°18'0 0.0
2018-May-22 10:30N 39°23' W 000°18'0 0.0
2018-May-22 09:54N 39°23' W 000°18'0 0.0
2018-May-22 09:27N 39°23' W 000°18'0 0.0
2018-May-22 09:00N 39°23' W 000°18'0 0.1
2018-May-22 08:06N 39°23' W 000°17'0 0.1
2018-May-22 08:00N 39°23' W 000°17'0 0.0
2018-May-22 07:18N 39°23' W 000°17'0 0.1
2018-May-22 06:57N 39°23' W 000°17'0 0.0
2018-May-22 06:30N 39°23' W 000°17'0 0.0
2018-May-22 06:00N 39°23' W 000°17'0 0.0
2018-May-22 05:21N 39°23' W 000°17'0 0.0
2018-May-22 05:00N 39°23' W 000°17'0 0.0
2018-May-22 04:30N 39°23' W 000°17'0 0.0
2018-May-22 04:00N 39°23' W 000°17'0 0.0
2018-May-22 03:30N 39°23' W 000°17'0 0.0
2018-May-22 03:00N 39°23' W 000°17'0 0.1
2018-May-22 02:30N 39°23' W 000°17'0 0.0
2018-May-22 02:00N 39°23' W 000°17'0 0.0
2018-May-22 01:30N 39°23' W 000°17'0 0.1
2018-May-22 01:00N 39°23' W 000°17'0 0.0
2018-May-22 00:30N 39°23' W 000°17'0 0.0
2018-May-22 00:00N 39°23' W 000°17'0 0.0
2018-May-21 23:30N 39°23' W 000°17'0 0.0
2018-May-21 23:00N 39°23' W 000°17'0 0.0
2018-May-21 16:24N 39°23' W 000°18'0 0.0
2018-May-21 16:00N 39°23' W 000°18'0 0.0
2018-May-21 15:30N 39°23' W 000°18'0 0.0
2018-May-21 11:42N 39°23' W 000°18'0 0.5
2018-May-21 11:30N 39°23' W 000°17'2 3.8
2018-May-21 10:57N 39°23' W 000°15'3 6.1
2018-May-21 10:30N 39°24' W 000°11'2 4.4
2018-May-21 10:00N 39°24' W 000°09'  
2018-May-15 23:41N 37°48' E 002°42'5 6.5
2018-May-15 22:59N 37°52' E 002°40'3 6.8
2018-May-15 22:30N 37°56' E 002°39'3 6.9
2018-May-15 22:00N 37°59' E 002°38'3 6.9
2018-May-15 21:30N 38°02' E 002°37'3 6.9
2018-May-15 21:00N 38°05' E 002°35'35 6.7
2018-May-15 15:45N 38°39' E 002°22'2 6.4
2018-May-15 15:22N 38°41' E 002°21'141 7.8
2018-May-14 21:24N 41°02' E 002°09'4 9.3
2018-May-14 21:00N 41°06' E 002°10'4 9.0
2018-May-14 20:30N 41°10' E 002°10'4 8.7
2018-May-14 20:00N 41°14' E 002°11'4 8.5
2018-May-14 19:31N 41°19' E 002°10'1 1.6
2018-May-14 18:59N 41°19' E 002°09'0 0.0
2018-May-14 18:29N 41°19' E 002°09'0 0.0
2018-May-14 17:59N 41°19' E 002°09'0 0.0
2018-May-14 17:29N 41°19' E 002°09'0 0.0
2018-May-14 16:59N 41°19' E 002°09'0 0.0
2018-May-14 16:29N 41°19' E 002°09'0 0.0
2018-May-14 15:59N 41°19' E 002°09'0 0.0
2018-May-14 15:29N 41°19' E 002°09'0 0.0
2018-May-14 14:59N 41°19' E 002°09'0 0.0
2018-May-14 14:29N 41°19' E 002°09'0 0.0
2018-May-14 13:59N 41°19' E 002°09'0 0.0
2018-May-14 13:29N 41°19' E 002°09'0 0.0
2018-May-14 12:59N 41°19' E 002°09'0 0.0
2018-May-14 12:29N 41°19' E 002°09'0 0.0
2018-May-14 11:53N 41°19' E 002°09'0 0.0
2018-May-14 11:29N 41°19' E 002°09'0 0.0
2018-May-14 10:59N 41°19' E 002°09'0 0.0
2018-May-14 10:29N 41°19' E 002°09'0 0.0
2018-May-14 09:59N 41°19' E 002°09'0 0.0
2018-May-14 09:29N 41°19' E 002°09'0 0.0
2018-May-14 09:01N 41°19' E 002°09'1 1.7
2018-May-14 08:30N 41°19' E 002°10'3 6.5
2018-May-14 08:00N 41°17' E 002°14'1 1.6
2018-May-14 07:30N 41°17' E 002°15'0 0.9
2018-May-14 07:00N 41°17' E 002°14'4 7.8
2018-May-14 06:30N 41°19' E 002°19'815.1
2018-May-14 06:00N 41°22' E 002°28'128 9.4
2018-May-13 16:26N 43°11' E 003°58'4 9.8
2018-May-13 15:58N 43°12' E 004°04'1210.3
2018-May-13 14:49N 43°14' E 004°20'310.5
2018-May-13 14:30N 43°14' E 004°24'510.7
2018-May-13 14:00N 43°15' E 004°32'510.4
2018-May-13 13:30N 43°16' E 004°39'510.2
2018-May-13 13:00N 43°16' E 004°46'5 9.7
2018-May-13 12:30N 43°17' E 004°52'5 9.5
2018-May-13 12:00N 43°18' E 004°59'612.0
2018-May-13 11:30N 43°23' E 004°56'5 7.5
2018-May-13 10:52N 43°25' E 004°50'0 0.0
2018-May-13 10:28N 43°25' E 004°50'0 0.0
2018-May-13 09:46N 43°25' E 004°50'0 0.0
2018-May-13 09:28N 43°25' E 004°50'0 0.0
2018-May-13 08:58N 43°25' E 004°50'  
Track history (hours):
 
Tides and Currents Weather Stations Pressure Air Temp Water Temp Dewpoint Dewpoint Depression Visibility Wind Speed Wind Dir Waves Ship Positions

Karin Schepers

Last reported at 2018-May-23 08:31 UTC. Time now 2018-Jun-22 11:30 UTC.
Position N 39°26' W 000°19'.
Warning: this ship's position is 30 days out of date.

Length 141 m; draft 6.2 m.

Type: Ship (hazmat cat A). MMSI: 305148000.

Date/timePositionNaut miles runAvg speedWind from/ knotsBaromVisibWave heightAir tempDewpointWater temp
2018-May-23 08:31N 39°26' W 000°19'0 0.1
2018-May-23 08:25N 39°26' W 000°19'0 0.0
2018-May-23 07:43N 39°26' W 000°19'0 0.1
2018-May-23 07:30N 39°26' W 000°19'2 3.9
2018-May-23 07:00N 39°25' W 000°17'1 1.9
2018-May-23 06:15N 39°23' W 000°17'0 0.0
2018-May-23 05:54N 39°23' W 000°18'0 0.0
2018-May-23 05:30N 39°23' W 000°18'0 0.1
2018-May-23 05:00N 39°23' W 000°17'0 0.2
2018-May-23 04:27N 39°23' W 000°17'0 0.0
2018-May-23 04:00N 39°23' W 000°17'0 0.0
2018-May-23 03:30N 39°23' W 000°17'0 0.1
2018-May-23 02:18N 39°23' W 000°17'0 0.0
2018-May-23 01:54N 39°23' W 000°17'0 0.0
2018-May-23 01:30N 39°23' W 000°17'0 0.0
2018-May-23 00:54N 39°23' W 000°17'0 0.0
2018-May-23 00:21N 39°23' W 000°17'0 0.0
2018-May-22 23:54N 39°23' W 000°17'0 0.0
2018-May-22 23:30N 39°23' W 000°17'0 0.0
2018-May-22 22:30N 39°23' W 000°17'0 0.0
2018-May-22 22:00N 39°23' W 000°17'0 0.0
2018-May-22 18:36N 39°23' W 000°18'0 0.1
2018-May-22 18:18N 39°23' W 000°18'0 0.0
2018-May-22 17:48N 39°23' W 000°18'0 0.0
2018-May-22 17:30N 39°23' W 000°18'0 0.1
2018-May-22 17:00N 39°23' W 000°18'0 0.0
2018-May-22 16:30N 39°23' W 000°18'0 0.0
2018-May-22 16:00N 39°23' W 000°18'0 0.1
2018-May-22 15:30N 39°23' W 000°18'0 0.1
2018-May-22 15:00N 39°23' W 000°18'0 0.0
2018-May-22 14:18N 39°23' W 000°18'0 0.0
2018-May-22 13:57N 39°23' W 000°18'0 0.0
2018-May-22 13:30N 39°23' W 000°18'0 0.0
2018-May-22 12:51N 39°23' W 000°18'0 0.0
2018-May-22 12:30N 39°23' W 000°18'0 0.0
2018-May-22 11:57N 39°23' W 000°18'0 0.0
2018-May-22 11:30N 39°23' W 000°18'0 0.0
2018-May-22 10:48N 39°23' W 000°18'0 0.0
2018-May-22 10:30N 39°23' W 000°18'0 0.0
2018-May-22 09:54N 39°23' W 000°18'0 0.0
2018-May-22 09:27N 39°23' W 000°18'0 0.0
2018-May-22 09:00N 39°23' W 000°18'0 0.1
2018-May-22 08:06N 39°23' W 000°17'0 0.1
2018-May-22 08:00N 39°23' W 000°17'0 0.0
2018-May-22 07:18N 39°23' W 000°17'0 0.1
2018-May-22 06:57N 39°23' W 000°17'0 0.0
2018-May-22 06:30N 39°23' W 000°17'0 0.0
2018-May-22 06:00N 39°23' W 000°17'0 0.0
2018-May-22 05:21N 39°23' W 000°17'0 0.0
2018-May-22 05:00N 39°23' W 000°17'0 0.0
2018-May-22 04:30N 39°23' W 000°17'0 0.0
2018-May-22 04:00N 39°23' W 000°17'0 0.0
2018-May-22 03:30N 39°23' W 000°17'0 0.0
2018-May-22 03:00N 39°23' W 000°17'0 0.1
2018-May-22 02:30N 39°23' W 000°17'0 0.0
2018-May-22 02:00N 39°23' W 000°17'0 0.0
2018-May-22 01:30N 39°23' W 000°17'0 0.1
2018-May-22 01:00N 39°23' W 000°17'0 0.0
2018-May-22 00:30N 39°23' W 000°17'0 0.0
2018-May-22 00:00N 39°23' W 000°17'0 0.0
2018-May-21 23:30N 39°23' W 000°17'0 0.0
2018-May-21 23:00N 39°23' W 000°17'0 0.0
2018-May-21 16:24N 39°23' W 000°18'0 0.0
2018-May-21 16:00N 39°23' W 000°18'0 0.0
2018-May-21 15:30N 39°23' W 000°18'0 0.0
2018-May-21 11:42N 39°23' W 000°18'0 0.5
2018-May-21 11:30N 39°23' W 000°17'2 3.8
2018-May-21 10:57N 39°23' W 000°15'3 6.1
2018-May-21 10:30N 39°24' W 000°11'2 4.4
2018-May-21 10:00N 39°24' W 000°09'  
2018-May-15 23:41N 37°48' E 002°42'5 6.5
2018-May-15 22:59N 37°52' E 002°40'3 6.8
2018-May-15 22:30N 37°56' E 002°39'3 6.9
2018-May-15 22:00N 37°59' E 002°38'3 6.9
2018-May-15 21:30N 38°02' E 002°37'3 6.9
2018-May-15 21:00N 38°05' E 002°35'35 6.7
2018-May-15 15:45N 38°39' E 002°22'2 6.4
2018-May-15 15:22N 38°41' E 002°21'141 7.8
2018-May-14 21:24N 41°02' E 002°09'4 9.3
2018-May-14 21:00N 41°06' E 002°10'4 9.0
2018-May-14 20:30N 41°10' E 002°10'4 8.7
2018-May-14 20:00N 41°14' E 002°11'4 8.5
2018-May-14 19:31N 41°19' E 002°10'1 1.6
2018-May-14 18:59N 41°19' E 002°09'0 0.0
2018-May-14 18:29N 41°19' E 002°09'0 0.0
2018-May-14 17:59N 41°19' E 002°09'0 0.0
2018-May-14 17:29N 41°19' E 002°09'0 0.0
2018-May-14 16:59N 41°19' E 002°09'0 0.0
2018-May-14 16:29N 41°19' E 002°09'0 0.0
2018-May-14 15:59N 41°19' E 002°09'0 0.0
2018-May-14 15:29N 41°19' E 002°09'0 0.0
2018-May-14 14:59N 41°19' E 002°09'0 0.0
2018-May-14 14:29N 41°19' E 002°09'0 0.0
2018-May-14 13:59N 41°19' E 002°09'0 0.0
2018-May-14 13:29N 41°19' E 002°09'0 0.0
2018-May-14 12:59N 41°19' E 002°09'0 0.0
2018-May-14 12:29N 41°19' E 002°09'0 0.0
2018-May-14 11:53N 41°19' E 002°09'0 0.0
2018-May-14 11:29N 41°19' E 002°09'0 0.0
2018-May-14 10:59N 41°19' E 002°09'0 0.0
2018-May-14 10:29N 41°19' E 002°09'0 0.0
2018-May-14 09:59N 41°19' E 002°09'0 0.0
2018-May-14 09:29N 41°19' E 002°09'0 0.0
2018-May-14 09:01N 41°19' E 002°09'1 1.7
2018-May-14 08:30N 41°19' E 002°10'3 6.5
2018-May-14 08:00N 41°17' E 002°14'1 1.6
2018-May-14 07:30N 41°17' E 002°15'0 0.9
2018-May-14 07:00N 41°17' E 002°14'4 7.8
2018-May-14 06:30N 41°19' E 002°19'815.1
2018-May-14 06:00N 41°22' E 002°28'128 9.4
2018-May-13 16:26N 43°11' E 003°58'4 9.8
2018-May-13 15:58N 43°12' E 004°04'1210.3
2018-May-13 14:49N 43°14' E 004°20'310.5
2018-May-13 14:30N 43°14' E 004°24'510.7
2018-May-13 14:00N 43°15' E 004°32'510.4
2018-May-13 13:30N 43°16' E 004°39'510.2
2018-May-13 13:00N 43°16' E 004°46'5 9.7
2018-May-13 12:30N 43°17' E 004°52'5 9.5
2018-May-13 12:00N 43°18' E 004°59'612.0
2018-May-13 11:30N 43°23' E 004°56'5 7.5
2018-May-13 10:52N 43°25' E 004°50'0 0.0
2018-May-13 10:28N 43°25' E 004°50'0 0.0
2018-May-13 09:46N 43°25' E 004°50'0 0.0
2018-May-13 09:28N 43°25' E 004°50'0 0.0
2018-May-13 08:58N 43°25' E 004°50'  

Dump ship's entire track history